Paradise, UT (84328)

12:41 AM MDT on October 25, 2014 (GMT -0600)
Mouth of BSF Canyon | Change Station
CLOSE
Current Station
Personal Weather Station
Location: Hyrum, UT
Elevation: 4829 ft
Nearby Weather Stations

Elev 4829 ft 41.63 °N, 111.82 °W | Updated 1 second ago

Clear
Clear
53.1 °F
Feels Like 53.1 °F
N
12.1
Wind Variable Wind from NE
Gusts 25.9 mph

Today
High -- | Low -- °F
--% Chance of Precip.
Yesterday
High -- | Low -- °F
Precip. -- in
7:50 AM 6:31 PM
New Moon, 2% visible
Pressure 30.09 in
Visibility 5.0 miles
Clouds Clear
Dew Point 30 °F
Humidity 41%
Rainfall 0.00 in
Snow Depth Not available.
UV 0 out of 12
Pollen 1.80 out of 12
PM2.5 Good
Flu Activity Sporadic
METAR KBMC 250615Z AUTO 00000KT 5SM CLR 08/02 A3009 RMK AO1 T00830024

More Conditions Fewer Conditions

Pressure 30.09 in
Visibility 5.0 miles
Clouds Clear
Dew Point 30 °F
Humidity 41%
Rainfall 0.00 in
Snow Depth Not available.
UV 0 out of 12
Pollen 1.80 out of 12
PM2.5 Good
Flu Activity Sporadic
METAR KBMC 250615Z AUTO 00000KT 5SM CLR 08/02 A3009 RMK AO1 T00830024

More Conditions Fewer Conditions

10-Day Weather Forecast

Almanac

Astronomy

Oct. 25, 2014 Rise Set
Actual Time 7:50 AM MDT 6:31 PM MDT
Civil Twilight 7:22 AM MDT 6:59 PM MDT
Nautical Twilight 6:49 AM MDT 7:31 PM MDT
Astronomical Twilight 6:17 AM MDT 8:04 PM MDT
Moon 9:34 AM MDT 7:55 PM MDT
Length of Visible Light 11h 37m
Length of Day
10h 40m
Tomorrow will be 2m 34s shorter.
New Moon, 2% of the Moon is Illuminated
Today
New Moon
Oct 30
First Quarter
Nov 6
Full
Nov 14
Last Quarter
Nov 22
New

Community

WunderPhotos

Upload Photos

1,764,787 photos uploaded!

Nearby

Air Quality

  Air Quality AQ Index Pollutant
Yesterday Good
PM2.5
Current Good
PM2.5

Snow Depth

Station Depth Elevation
Little Bear 0 in 6550 ft
Ben Lomond Trail 0 in 6000 ft
Ben Lomond Peak 0 in 8000 ft
Monte Cristo 0 in 8960 ft
Temple Fork 0 in 7406 ft

Earthquake Activity

City Distance Mag. Time & Date
No recent earthquake activity has been reported nearby.
Minimum magnitude displayed is 2.5.

Coastal Water Temperatures

Place Temperature
No Stations Reporting

Nearby Weather Stations